createdAt,value
2018-11-28T00:02:23.822Z,2.10
2018-11-28T00:04:51.066Z,2.10
2018-11-28T00:07:18.319Z,2.10
2018-11-28T00:09:45.679Z,2.00
2018-11-28T00:12:13.009Z,2.00
2018-11-28T00:14:40.386Z,2.00
2018-11-28T00:17:07.862Z,2.30
2018-11-28T00:19:35.514Z,2.10
2018-11-28T00:22:02.818Z,2.10
2018-11-28T00:24:30.129Z,2.20
2018-11-28T00:26:57.408Z,2.20
2018-11-28T00:29:24.778Z,2.30
2018-11-28T00:31:52.103Z,2.30
2018-11-28T00:34:19.430Z,2.30
2018-11-28T00:36:46.697Z,2.30
2018-11-28T00:39:13.951Z,2.60
2018-11-28T00:41:41.190Z,2.30
2018-11-28T00:44:08.428Z,2.20
2018-11-28T00:46:35.659Z,2.20
2018-11-28T00:49:02.929Z,2.30
2018-11-28T00:51:30.195Z,2.30
2018-11-28T00:53:57.426Z,2.30
2018-11-28T00:56:24.702Z,2.40
2018-11-28T00:58:51.972Z,2.40
2018-11-28T01:01:19.289Z,2.40
2018-11-28T01:03:46.555Z,2.40
2018-11-28T01:06:13.846Z,2.40
2018-11-28T01:08:41.128Z,2.40
2018-11-28T01:11:08.414Z,2.40
2018-11-28T01:13:35.679Z,2.40
2018-11-28T01:16:02.980Z,2.40
2018-11-28T01:18:30.227Z,2.40
2018-11-28T01:20:57.475Z,2.50
2018-11-28T01:23:24.758Z,2.50
2018-11-28T01:25:52.028Z,2.30
2018-11-28T01:28:19.430Z,2.30
2018-11-28T01:30:46.701Z,2.30
2018-11-28T01:33:13.952Z,2.40
2018-11-28T01:35:41.190Z,2.30
2018-11-28T01:38:08.440Z,2.30
2018-11-28T01:40:35.651Z,2.30
2018-11-28T01:43:02.890Z,2.40
2018-11-28T01:45:30.137Z,2.40
2018-11-28T01:47:57.386Z,2.40
2018-11-28T01:50:24.614Z,2.40
2018-11-28T01:52:51.851Z,2.50
2018-11-28T01:55:20.442Z,2.50
2018-11-28T01:57:47.718Z,2.50
2018-11-28T02:00:19.885Z,2.50
2018-11-28T02:02:49.547Z,2.50
2018-11-28T02:05:16.802Z,2.60
2018-11-28T02:07:44.045Z,2.60
2018-11-28T02:10:12.399Z,2.60
2018-11-28T02:12:39.711Z,2.70
2018-11-28T02:15:08.608Z,2.50
2018-11-28T02:17:35.896Z,2.50
2018-11-28T02:20:05.005Z,2.50
2018-11-28T02:22:32.282Z,2.30
2018-11-28T02:24:59.584Z,2.20
2018-11-28T02:27:26.868Z,2.20
2018-11-28T02:29:54.151Z,2.20
2018-11-28T02:32:21.385Z,2.30
2018-11-28T02:34:48.635Z,2.30
2018-11-28T02:37:15.867Z,2.30
2018-11-28T02:39:43.111Z,2.30
2018-11-28T02:42:10.363Z,2.30
2018-11-28T02:44:37.659Z,2.30
2018-11-28T02:47:04.990Z,2.30
2018-11-28T02:49:32.233Z,2.40
2018-11-28T02:51:59.470Z,2.40
2018-11-28T02:54:26.690Z,2.50
2018-11-28T02:56:53.991Z,2.50
2018-11-28T02:59:21.250Z,3.10
2018-11-28T03:01:48.625Z,2.40
2018-11-28T03:04:15.882Z,2.40
2018-11-28T03:06:43.142Z,2.30
2018-11-28T03:09:10.469Z,2.30
2018-11-28T03:11:37.763Z,2.30
2018-11-28T03:14:05.317Z,2.20
2018-11-28T03:16:32.590Z,2.10
2018-11-28T03:18:59.877Z,2.00
2018-11-28T03:21:27.140Z,1.90
2018-11-28T03:23:54.391Z,1.80
2018-11-28T03:26:21.638Z,1.80
2018-11-28T03:28:48.955Z,1.70
2018-11-28T03:31:16.219Z,1.50
2018-11-28T03:33:43.640Z,1.60
2018-11-28T03:36:10.886Z,1.50
2018-11-28T03:38:38.172Z,1.50
2018-11-28T03:41:05.491Z,1.40
2018-11-28T03:43:32.746Z,1.40
2018-11-28T03:46:00.047Z,1.90
2018-11-28T03:48:27.343Z,1.40
2018-11-28T03:50:54.646Z,1.50
2018-11-28T03:53:21.905Z,1.40
2018-11-28T03:55:49.200Z,1.40
2018-11-28T03:58:16.507Z,1.40
2018-11-28T04:00:43.799Z,1.40
2018-11-28T04:03:11.074Z,1.40
2018-11-28T04:05:38.336Z,1.40
2018-11-28T04:08:05.642Z,1.40
2018-11-28T04:10:33.677Z,1.40
2018-11-28T04:13:00.949Z,1.50
2018-11-28T04:15:28.343Z,1.40
2018-11-28T04:17:55.753Z,1.50
2018-11-28T04:20:23.172Z,1.60
2018-11-28T04:22:51.082Z,1.60
2018-11-28T04:25:20.491Z,1.60
2018-11-28T04:27:47.803Z,1.60
2018-11-28T04:30:16.126Z,1.70
2018-11-28T04:32:43.419Z,1.70
2018-11-28T04:35:11.949Z,1.70
2018-11-28T04:37:39.300Z,1.50
2018-11-28T04:40:11.555Z,1.50
2018-11-28T04:42:38.930Z,1.60
2018-11-28T04:45:09.892Z,1.70
2018-11-28T04:47:37.159Z,1.70
2018-11-28T04:50:05.806Z,1.70
2018-11-28T04:52:33.028Z,1.80
2018-11-28T04:55:00.255Z,1.80
2018-11-28T04:57:27.506Z,1.80
2018-11-28T04:59:54.739Z,1.80
2018-11-28T05:02:22.071Z,1.80
2018-11-28T05:04:49.294Z,1.80
2018-11-28T05:07:31.171Z,1.70
2018-11-28T05:09:58.664Z,1.80
2018-11-28T05:12:26.018Z,1.80
2018-11-28T05:14:53.276Z,1.90
2018-11-28T05:17:20.576Z,1.80
2018-11-28T05:19:47.854Z,1.90
2018-11-28T05:22:15.200Z,1.80
2018-11-28T05:24:42.567Z,1.80
2018-11-28T05:27:09.898Z,1.90
2018-11-28T05:29:37.315Z,1.90
2018-11-28T05:32:05.485Z,1.90
2018-11-28T05:34:32.747Z,1.90
2018-11-28T05:37:00.018Z,1.80
2018-11-28T05:39:27.277Z,1.70
2018-11-28T05:41:54.619Z,1.70
2018-11-28T05:44:21.839Z,1.70
2018-11-28T05:46:49.101Z,1.80
2018-11-28T05:49:16.492Z,1.70
2018-11-28T05:51:43.812Z,1.60
2018-11-28T05:54:11.150Z,1.60
2018-11-28T05:56:38.487Z,1.70
2018-11-28T05:59:05.830Z,1.60
2018-11-28T06:01:33.174Z,1.60
2018-11-28T06:04:00.514Z,1.70
2018-11-28T06:06:27.827Z,1.60
2018-11-28T06:08:55.075Z,1.50
2018-11-28T06:11:22.325Z,1.50
2018-11-28T06:13:49.589Z,1.60
2018-11-28T06:16:16.914Z,1.60
2018-11-28T06:18:44.219Z,1.70
2018-11-28T06:21:11.480Z,1.50
2018-11-28T06:23:38.726Z,1.50
2018-11-28T06:26:06.069Z,1.30
2018-11-28T06:28:33.294Z,1.20
2018-11-28T06:31:00.546Z,1.20
2018-11-28T06:33:27.918Z,1.00
2018-11-28T06:35:55.269Z,1.00
2018-11-28T06:38:22.651Z,1.00
2018-11-28T06:40:49.933Z,0.90
2018-11-28T06:43:17.203Z,0.80
2018-11-28T06:45:44.466Z,0.90
2018-11-28T06:48:11.715Z,0.80
2018-11-28T06:50:38.980Z,0.80
2018-11-28T06:53:06.310Z,0.80
2018-11-28T06:55:33.538Z,0.80
2018-11-28T06:58:00.768Z,0.80
2018-11-28T07:00:28.033Z,0.70
2018-11-28T07:02:55.253Z,0.80
2018-11-28T07:05:22.706Z,0.70
2018-11-28T07:07:50.393Z,0.70
2018-11-28T07:10:18.786Z,0.80
2018-11-28T07:12:46.043Z,0.70
2018-11-28T07:15:17.778Z,0.70
2018-11-28T07:17:45.155Z,0.70
2018-11-28T07:20:13.773Z,0.80
2018-11-28T07:22:41.082Z,0.80
2018-11-28T07:25:12.320Z,0.90
2018-11-28T07:27:44.841Z,-1.10
2018-11-28T07:30:15.345Z,1.00
2018-11-28T07:32:42.718Z,0.90
2018-11-28T07:35:10.589Z,1.00
2018-11-28T07:37:37.935Z,1.10
2018-11-28T07:40:09.903Z,1.10
2018-11-28T07:42:37.474Z,1.10
2018-11-28T07:45:07.261Z,1.30
2018-11-28T07:47:34.507Z,1.30
2018-11-28T07:50:01.849Z,1.30
2018-11-28T07:52:29.078Z,1.70
2018-11-28T07:54:56.342Z,1.40
2018-11-28T07:57:23.591Z,1.40
2018-11-28T07:59:50.878Z,1.50
2018-11-28T08:02:18.125Z,1.60
2018-11-28T08:04:45.450Z,1.60
2018-11-28T08:07:12.698Z,1.60
2018-11-28T08:09:39.951Z,1.70
2018-11-28T08:12:07.221Z,1.80
2018-11-28T08:14:34.475Z,1.80
2018-11-28T08:17:01.785Z,1.70
2018-11-28T08:19:29.057Z,1.80
2018-11-28T08:21:56.359Z,1.70
2018-11-28T08:24:23.614Z,1.80
2018-11-28T08:26:50.877Z,1.90
2018-11-28T08:29:18.130Z,1.90
2018-11-28T08:31:45.379Z,1.80
2018-11-28T08:34:12.616Z,2.00
2018-11-28T08:36:40.069Z,1.90
2018-11-28T08:39:07.892Z,2.00
2018-11-28T08:41:35.264Z,2.10
2018-11-28T08:44:02.548Z,2.30
2018-11-28T08:46:29.799Z,2.60
2018-11-28T08:48:57.186Z,2.70
2018-11-28T08:51:24.506Z,2.50
2018-11-28T08:53:51.758Z,2.60
2018-11-28T08:56:19.026Z,2.70
2018-11-28T08:58:46.298Z,2.70
2018-11-28T09:01:13.623Z,2.80
2018-11-28T09:03:40.925Z,3.40
2018-11-28T09:06:08.146Z,4.20
2018-11-28T09:08:35.374Z,4.80
2018-11-28T09:11:02.643Z,5.40
2018-11-28T09:13:29.898Z,6.30
2018-11-28T09:15:57.195Z,6.70
2018-11-28T09:18:24.484Z,7.20
2018-11-28T09:20:51.746Z,6.50
2018-11-28T09:23:18.994Z,6.20
2018-11-28T09:25:46.270Z,6.50
2018-11-28T09:28:13.540Z,7.90
2018-11-28T09:30:40.798Z,7.30
2018-11-28T09:33:08.698Z,7.30
2018-11-28T09:35:35.387Z,7.80
2018-11-28T09:38:02.642Z,7.20
2018-11-28T09:40:29.952Z,6.70
2018-11-28T09:42:58.306Z,6.90
2018-11-28T09:45:25.704Z,7.10
2018-11-28T09:47:52.958Z,7.30
2018-11-28T09:50:24.126Z,6.80
2018-11-28T09:52:51.467Z,6.30
2018-11-28T09:55:22.767Z,5.80
2018-11-28T09:57:50.109Z,5.90
2018-11-28T10:00:19.376Z,6.30
2018-11-28T10:02:47.183Z,6.30
2018-11-28T10:05:16.238Z,6.30
2018-11-28T10:07:43.677Z,6.10
2018-11-28T10:10:12.210Z,6.10
2018-11-28T10:12:39.644Z,5.90
2018-11-28T10:15:19.506Z,6.00
2018-11-28T10:17:46.829Z,6.30
2018-11-28T10:20:14.769Z,6.70
2018-11-28T10:22:42.903Z,6.30
2018-11-28T10:25:12.119Z,5.60
2018-11-28T10:27:39.418Z,5.50
2018-11-28T10:30:18.570Z,5.10
2018-11-28T10:32:46.338Z,4.90
2018-11-28T10:35:13.586Z,4.70
2018-11-28T10:37:40.815Z,4.70
2018-11-28T10:40:11.123Z,4.70
2018-11-28T10:42:38.446Z,4.60
2018-11-28T10:45:07.006Z,4.50
2018-11-28T10:47:34.226Z,4.60
2018-11-28T10:50:01.470Z,4.70
2018-11-28T10:52:28.770Z,5.10
2018-11-28T10:54:55.978Z,4.90
2018-11-28T10:57:23.218Z,4.70
2018-11-28T10:59:50.479Z,4.90
2018-11-28T11:02:23.529Z,4.90
2018-11-28T11:04:56.511Z,1.60
2018-11-28T11:07:29.399Z,4.60
2018-11-28T11:10:02.390Z,4.60
2018-11-28T11:12:35.348Z,4.40
2018-11-28T11:15:02.598Z,4.40
2018-11-28T11:17:29.877Z,4.40
2018-11-28T11:19:57.255Z,4.60
2018-11-28T11:22:24.553Z,4.60
2018-11-28T11:24:51.782Z,4.70
2018-11-28T11:27:18.994Z,4.50
2018-11-28T11:29:46.210Z,4.50
2018-11-28T11:32:13.459Z,4.50
2018-11-28T11:34:40.677Z,4.80
2018-11-28T11:37:07.929Z,4.80
2018-11-28T11:39:35.175Z,4.60
2018-11-28T11:42:02.403Z,4.70
2018-11-28T11:44:30.450Z,4.80
2018-11-28T11:46:57.671Z,4.80
2018-11-28T11:49:24.955Z,4.80
2018-11-28T11:51:52.233Z,4.80
2018-11-28T11:54:19.484Z,4.80
2018-11-28T11:56:46.870Z,4.50
2018-11-28T11:59:14.238Z,4.50
2018-11-28T12:01:41.577Z,4.40
2018-11-28T12:04:09.161Z,4.40
2018-11-28T12:06:36.399Z,4.50
2018-11-28T12:09:06.332Z,4.40
2018-11-28T12:11:33.635Z,4.50
2018-11-28T12:14:01.079Z,4.40
2018-11-28T12:16:28.362Z,4.50
2018-11-28T12:18:55.603Z,4.70
2018-11-28T12:21:22.912Z,4.80
2018-11-28T12:23:50.159Z,4.90
2018-11-28T12:26:17.423Z,5.00
2018-11-28T12:28:44.659Z,5.00
2018-11-28T12:31:11.908Z,5.20
2018-11-28T12:33:39.168Z,5.20
2018-11-28T12:36:06.428Z,4.90
2018-11-28T12:38:33.831Z,4.80
2018-11-28T12:41:01.095Z,5.00
2018-11-28T12:43:28.346Z,4.80
2018-11-28T12:45:55.651Z,4.70
2018-11-28T12:48:22.887Z,4.60
2018-11-28T12:50:50.140Z,4.40
2018-11-28T12:53:17.368Z,4.40
2018-11-28T12:55:44.635Z,4.40
2018-11-28T12:58:14.386Z,4.40
2018-11-28T13:00:41.637Z,4.50
2018-11-28T13:03:10.303Z,4.70
2018-11-28T13:05:37.571Z,4.60
2018-11-28T13:08:05.338Z,4.60
2018-11-28T13:10:34.009Z,4.50
2018-11-28T13:13:01.327Z,4.50
2018-11-28T13:15:28.587Z,4.50
2018-11-28T13:17:55.874Z,4.50
2018-11-28T13:20:23.151Z,4.40
2018-11-28T13:22:51.535Z,4.40
2018-11-28T13:25:22.743Z,4.40
2018-11-28T13:27:50.047Z,4.50
2018-11-28T13:30:19.079Z,4.60
2018-11-28T13:32:46.771Z,4.60
2018-11-28T13:35:16.122Z,4.60
2018-11-28T13:37:44.438Z,4.50
2018-11-28T13:40:13.654Z,4.40
2018-11-28T13:42:41.052Z,4.30
2018-11-28T13:45:10.804Z,4.20
2018-11-28T13:47:38.079Z,4.20
2018-11-28T13:50:07.252Z,4.20
2018-11-28T13:52:34.487Z,4.10
2018-11-28T13:55:37.951Z,4.00
2018-11-28T13:57:29.096Z,4.00
2018-11-28T14:00:28.725Z,4.60
2018-11-28T14:02:59.800Z,4.00
2018-11-28T14:05:27.080Z,4.00
2018-11-28T14:07:54.441Z,3.90
2018-11-28T14:10:21.659Z,3.80
2018-11-28T14:12:48.915Z,3.70
2018-11-28T14:15:17.163Z,3.70
2018-11-28T14:17:46.730Z,3.80
2018-11-28T14:20:13.994Z,3.80
2018-11-28T14:22:41.210Z,3.60
2018-11-28T14:25:09.768Z,3.60
2018-11-28T14:27:37.034Z,3.60
2018-11-28T14:30:09.188Z,3.60
2018-11-28T14:32:36.429Z,3.50
2018-11-28T14:35:04.091Z,3.50
2018-11-28T14:37:31.367Z,3.40
2018-11-28T14:39:58.597Z,3.40
2018-11-28T14:42:25.891Z,3.30
2018-11-28T14:44:53.130Z,3.30
2018-11-28T14:47:20.409Z,3.30
2018-11-28T14:49:47.634Z,3.10
2018-11-28T14:52:14.871Z,3.10
2018-11-28T14:54:42.123Z,3.00
2018-11-28T14:57:09.394Z,2.90
2018-11-28T14:59:40.451Z,2.90
2018-11-28T15:02:04.175Z,2.80
2018-11-28T15:04:31.440Z,2.70
2018-11-28T15:07:00.179Z,2.70
2018-11-28T15:09:34.676Z,2.80
2018-11-28T15:12:03.107Z,2.70
2018-11-28T15:14:30.387Z,2.80
2018-11-28T15:16:57.641Z,2.60
2018-11-28T15:19:24.909Z,2.60
2018-11-28T15:21:52.178Z,2.60
2018-11-28T15:24:19.420Z,2.50
2018-11-28T15:26:46.661Z,2.50
2018-11-28T15:29:13.918Z,2.50
2018-11-28T15:31:41.195Z,2.20
2018-11-28T15:34:08.418Z,2.20
2018-11-28T15:36:35.699Z,2.20
2018-11-28T15:39:04.283Z,2.20
2018-11-28T15:41:31.537Z,2.20
2018-11-28T15:43:58.777Z,2.10
2018-11-28T15:46:26.007Z,2.00
2018-11-28T15:48:53.216Z,1.90
2018-11-28T15:51:20.450Z,1.80
2018-11-28T15:53:47.762Z,1.80
2018-11-28T15:56:15.023Z,1.90
2018-11-28T15:58:42.468Z,1.90
2018-11-28T16:01:09.761Z,1.80
2018-11-28T16:03:37.023Z,1.70
2018-11-28T16:06:04.687Z,1.60
2018-11-28T16:08:31.947Z,1.70
2018-11-28T16:11:00.601Z,1.80
2018-11-28T16:13:27.849Z,1.70
2018-11-28T16:15:56.562Z,3.50
2018-11-28T16:18:23.852Z,1.70
2018-11-28T16:20:51.131Z,1.70
2018-11-28T16:23:18.449Z,1.70
2018-11-28T16:25:45.779Z,1.80
2018-11-28T16:28:13.110Z,1.80
2018-11-28T16:30:40.366Z,1.70
2018-11-28T16:33:07.703Z,1.70
2018-11-28T16:35:35.560Z,1.70
2018-11-28T16:38:04.229Z,1.70
2018-11-28T16:40:31.471Z,1.60
2018-11-28T16:42:58.714Z,1.80
2018-11-28T16:45:26.150Z,1.70
2018-11-28T16:47:53.379Z,1.70
2018-11-28T16:50:20.627Z,1.80
2018-11-28T16:52:47.887Z,1.70
2018-11-28T16:55:16.197Z,1.50
2018-11-28T16:57:49.919Z,1.60
2018-11-28T17:00:22.462Z,1.50
2018-11-28T17:02:50.283Z,1.50
2018-11-28T17:05:18.510Z,1.50
2018-11-28T17:07:46.005Z,1.60
2018-11-28T17:10:14.348Z,1.60
2018-11-28T17:12:41.816Z,1.60
2018-11-28T17:15:12.460Z,1.50
2018-11-28T17:17:39.754Z,1.50
2018-11-28T17:20:11.364Z,1.30
2018-11-28T17:22:38.622Z,1.20
2018-11-28T17:25:22.333Z,1.10
2018-11-28T17:27:49.590Z,1.00
2018-11-28T17:30:22.899Z,0.80
2018-11-28T17:32:50.269Z,0.50
2018-11-28T17:35:17.554Z,0.50
2018-11-28T17:37:44.826Z,0.50
2018-11-28T17:40:14.286Z,0.40
2018-11-28T17:42:42.160Z,0.30
2018-11-28T17:45:10.879Z,0.30
2018-11-28T17:47:38.162Z,0.40
2018-11-28T17:50:09.126Z,0.40
2018-11-28T17:52:36.386Z,0.30
2018-11-28T17:55:04.322Z,0.40
2018-11-28T17:57:32.115Z,0.30
2018-11-28T17:59:59.398Z,0.30
2018-11-28T18:02:26.667Z,0.30
2018-11-28T18:04:53.918Z,0.30
2018-11-28T18:07:21.135Z,0.40
2018-11-28T18:09:48.390Z,0.40
2018-11-28T18:12:15.649Z,0.50
2018-11-28T18:14:42.959Z,0.50
2018-11-28T18:17:10.203Z,0.50
2018-11-28T18:19:37.543Z,0.60
2018-11-28T18:22:04.983Z,0.40
2018-11-28T18:24:32.231Z,0.40
2018-11-28T18:26:59.502Z,0.40
2018-11-28T18:29:26.722Z,0.40
2018-11-28T18:31:53.982Z,0.40
2018-11-28T18:34:21.238Z,0.30
2018-11-28T18:36:48.502Z,0.40
2018-11-28T18:39:15.736Z,0.50
2018-11-28T18:41:42.987Z,0.50
2018-11-28T18:44:10.263Z,0.40
2018-11-28T18:46:37.526Z,0.50
2018-11-28T18:49:04.783Z,0.80
2018-11-28T18:51:32.079Z,0.40
2018-11-28T18:53:59.322Z,0.50
2018-11-28T18:56:26.580Z,0.60
2018-11-28T18:58:53.870Z,0.50
2018-11-28T19:01:21.124Z,0.50
2018-11-28T19:03:48.347Z,0.50
2018-11-28T19:06:15.613Z,0.60
2018-11-28T19:08:42.892Z,0.60
2018-11-28T19:11:10.130Z,0.50
2018-11-28T19:13:37.420Z,0.50
2018-11-28T19:16:05.021Z,0.60
2018-11-28T19:18:32.247Z,0.60
2018-11-28T19:20:59.523Z,0.60
2018-11-28T19:23:26.799Z,0.70
2018-11-28T19:25:54.090Z,0.70
2018-11-28T19:28:21.354Z,0.70
2018-11-28T19:30:48.627Z,0.70
2018-11-28T19:33:15.852Z,0.70
2018-11-28T19:35:43.166Z,0.80
2018-11-28T19:38:12.102Z,0.80
2018-11-28T19:40:54.593Z,0.70
2018-11-28T19:43:22.030Z,0.80
2018-11-28T19:45:49.298Z,0.70
2018-11-28T19:48:16.592Z,0.70
2018-11-28T19:50:43.909Z,0.70
2018-11-28T19:53:11.186Z,0.70
2018-11-28T19:55:38.903Z,0.70
2018-11-28T19:58:06.503Z,0.70
2018-11-28T20:00:33.935Z,0.70
2018-11-28T20:03:01.202Z,0.80
2018-11-28T20:05:28.443Z,0.80
2018-11-28T20:07:55.913Z,0.80
2018-11-28T20:10:24.053Z,0.80
2018-11-28T20:12:51.441Z,0.70
2018-11-28T20:15:25.827Z,0.70
2018-11-28T20:17:53.462Z,0.70
2018-11-28T20:20:20.923Z,0.70
2018-11-28T20:22:48.181Z,0.70
2018-11-28T20:25:16.575Z,0.70
2018-11-28T20:27:46.210Z,0.80
2018-11-28T20:30:15.009Z,0.70
2018-11-28T20:32:42.406Z,0.70
2018-11-28T20:35:10.351Z,0.70
2018-11-28T20:37:37.999Z,0.70
2018-11-28T20:40:16.355Z,0.80
2018-11-28T20:42:47.849Z,0.70
2018-11-28T20:45:15.327Z,0.80
2018-11-28T20:47:42.567Z,0.70
2018-11-28T20:50:11.999Z,0.70
2018-11-28T20:52:39.939Z,0.60
2018-11-28T20:55:08.644Z,0.70
2018-11-28T20:57:36.022Z,0.70
2018-11-28T21:00:06.102Z,0.80
2018-11-28T21:02:35.543Z,0.80
2018-11-28T21:05:02.906Z,0.70
2018-11-28T21:07:30.273Z,3.20
2018-11-28T21:10:02.206Z,0.80
2018-11-28T21:12:29.462Z,0.70
2018-11-28T21:14:56.742Z,0.80
2018-11-28T21:17:24.196Z,0.80
2018-11-28T21:19:51.465Z,0.80
2018-11-28T21:22:18.779Z,0.80
2018-11-28T21:24:46.009Z,0.70
2018-11-28T21:27:13.283Z,0.70
2018-11-28T21:29:40.530Z,0.60
2018-11-28T21:32:07.795Z,0.60
2018-11-28T21:34:44.734Z,0.60
2018-11-28T21:37:12.198Z,0.60
2018-11-28T21:39:39.469Z,0.60
2018-11-28T21:42:06.783Z,0.60
2018-11-28T21:44:34.139Z,0.60
2018-11-28T21:47:01.444Z,0.70
2018-11-28T21:49:28.773Z,0.60
2018-11-28T21:51:56.122Z,0.60
2018-11-28T21:54:23.375Z,0.60
2018-11-28T21:56:50.775Z,0.50
2018-11-28T21:59:18.095Z,0.60
2018-11-28T22:01:45.454Z,0.60
2018-11-28T22:04:12.759Z,0.50
2018-11-28T22:06:40.049Z,0.50
2018-11-28T22:09:08.495Z,0.40
2018-11-28T22:11:36.085Z,0.40
2018-11-28T22:14:03.672Z,0.40
2018-11-28T22:16:30.955Z,0.40
2018-11-28T22:18:58.226Z,0.50
2018-11-28T22:21:25.545Z,0.50
2018-11-28T22:23:52.872Z,0.50
2018-11-28T22:26:20.167Z,0.40
2018-11-28T22:28:47.420Z,0.40
2018-11-28T22:31:14.734Z,0.20
2018-11-28T22:33:42.075Z,0.40
2018-11-28T22:36:09.367Z,0.40
2018-11-28T22:38:36.658Z,0.30
2018-11-28T22:41:03.974Z,0.30
2018-11-28T22:43:31.226Z,0.30
2018-11-28T22:45:58.483Z,0.30
2018-11-28T22:48:25.730Z,0.30
2018-11-28T22:50:52.982Z,0.30
2018-11-28T22:53:20.295Z,0.30
2018-11-28T22:55:47.533Z,0.30
2018-11-28T22:58:14.805Z,0.30
2018-11-28T23:00:47.723Z,0.30
2018-11-28T23:03:15.547Z,0.30
2018-11-28T23:05:44.713Z,0.30
2018-11-28T23:08:13.089Z,0.30
2018-11-28T23:10:40.382Z,0.30
2018-11-28T23:13:08.677Z,0.30
2018-11-28T23:15:35.934Z,0.30
2018-11-28T23:18:03.273Z,0.20
2018-11-28T23:20:30.514Z,0.20
2018-11-28T23:22:57.771Z,0.30
2018-11-28T23:25:25.046Z,0.30
2018-11-28T23:27:52.310Z,0.40
2018-11-28T23:30:20.557Z,0.30
2018-11-28T23:32:48.482Z,0.30
2018-11-28T23:35:16.506Z,0.30
2018-11-28T23:37:44.749Z,0.30
2018-11-28T23:40:17.754Z,0.30
2018-11-28T23:42:45.065Z,0.30
2018-11-28T23:45:13.120Z,0.20
2018-11-28T23:47:40.406Z,0.20
2018-11-28T23:50:14.787Z,0.10
2018-11-28T23:52:42.490Z,0.10
2018-11-28T23:55:27.696Z,0.00
2018-11-28T23:57:55.102Z,0.00
